Impacts TAF Board INFO
FOR SITUATIONAL AWARENESS. NOT TO BE USED FOR FLIGHT PLANNING PURPOSES.
IDs:

KBOS - Boston/Logan Intl, MA, US

Issued at 0235 UTC 20 Aug 2018
Updated at 0330 UTC 20 Aug 2018
Potential Impact None Slight Moderate High
Time0254Z 20/04Z 20/05Z 20/06Z 20/07Z 20/08Z 20/09Z 20/10Z 20/11Z 20/12Z 20/13Z 20/14Z 20/15Z 20/16Z>>
Type OBS PRVL PRVL PRVL PRVL PRVL PRVL PRVL PRVL PRVL PRVL PRVL PRVL PRVL
VIS 10 3 3 3 3 2 2 2 2 >6 >6 >6 >6 >6
CIG 17 15 15 15 15 8 8 8 8 20 20 20 40 40
Cover OVC OVC OVC OVC OVC OVC OVC OVC OVC OVC OVC OVC BKN BKN
FltCat MVFR MVFR MVFR MVFR MVFR IFR IFR IFR IFR MVFR MVFR MVFR VFR VFR
WX -- -SHRA BR -SHRA BR -SHRA BR -SHRA BR BR BR BR BR -- -- -- -- --
WDir 40 40 40 40 40 30 30 30 30 30 30 30 60 60
WSpd 12 12 12 12 12 10 10 10 10 8 8 8 10 10
WGst -- -- -- -- -- -- -- -- -- -- -- -- -- --

Raw TAF
KBOS 200235Z 2003/2106 04012KT 3SM -SHRA BR FEW008 OVC015
  FM200800 03010KT 2SM BR OVC008
  FM201200 03008KT P6SM OVC020
  FM201500 06010KT P6SM BKN040


Raw METAR
KBOS 200254Z 04012KT 10SM FEW008 BKN017 OVC028 19/18 A3010 RMK AO2 RAB11E47 SLP192 P0001 60001 T01940178 50003 $
KBOS 200221Z 04013KT 3SM -RA BR FEW009 BKN015 OVC026 19/18 A3010 RMK AO2 RAB11 CIG 009 E P0000 T01940178 $
KBOS 200154Z 05012KT 10SM SCT018 BKN043 OVC049 21/17 A3010 RMK AO2 SLP194 T02060167 $
KBOS 200054Z 05017KT 9SM SCT019 BKN040 OVC047 21/16 A3010 RMK AO2 CIG 019 E SLP194 T02060161 $
KBOS 200037Z 06015KT 10SM SCT019 BKN024 OVC050 21/16 A3010 RMK AO2 T02060161 $

METAR Board
Radar Display
Forecast Discussion

FOR SITUATIONAL AWARENESS. NOT TO BE USED FOR FLIGHT PLANNING PURPOSES.